x

8454000 - Providence, Ri (foxr1) Weather Station

6:18am - Sun 19th Feb 2017 All times are EST. -5 hours from GMT.

  • Wind
    5mph, 8mph gusts
  • Sea Temp 37°f
  • 空気 Temp 44°f
  • Sea Pressure 1004.5mb
  • 8454000 - Providence, Ri
  • 8454000 - Providence, Ri

More Historic Weather Station data

Upgrade to MSW Pro to gain access to the past 30 days of data for over 8000 Wavebouys and Weather Stations around the globe.

Join Pro

Comparision Forecast

View Surf forecast
   
Sun 02/19 6:18am 5 8 mph 1004.5mb 37f 44f
6:12am 3 6 mph 1004.4mb 37f 44f
6:06am 2 5 mph 1004.4mb 37f 44f
6:00am 2 5 mph 1004.4mb 37f 44f
5:54am 5 7 mph 1004.3mb 37f 44f
5:48am 5 7 mph 1004.2mb 37f 44f
5:42am 6 8 mph 1004.2mb 37f 45f
5:36am 6 7 mph 1004.1mb 37f 45f
5:30am 6 8 mph 1004mb 37f 45f
5:24am 7 8 mph 1003.9mb 37f 45f
5:18am 5 6 mph 1003.8mb 37f 45f
5:12am 6 7 mph 1003.8mb 37f 45f
5:06am 7 8 mph 1003.7mb 37f 45f
5:00am 6 7 mph 1003.6mb 37f 45f
4:54am 3 6 mph 1003.5mb 37f 45f
4:48am 3 7 mph 1003.5mb 37f 45f
4:42am 6 9 mph 1003.4mb 37f 45f
4:36am 6 8 mph 1003.3mb 37f 45f
4:30am 5 7 mph 1003.3mb 37f 44f
4:24am 5 7 mph 1003.2mb 37f 44f
4:18am 5 6 mph 1003.2mb 37f 44f
4:12am 3 5 mph 1003.1mb 37f 44f
4:06am 3 7 mph 1003mb 37f 45f
4:00am 3 7 mph 1002.8mb 37f 45f
3:54am 6 9 mph 1002.7mb 37f 45f
3:48am 6 9 mph 1002.6mb 37f 45f
3:42am 6 8 mph 1002.6mb 37f 45f
3:36am 5 6 mph 1002.5mb 37f 45f
3:30am 5 6 mph 1002.5mb 37f 45f
3:24am 7 10 mph 1002.2mb 37f 46f
3:18am 8 11 mph 1002.1mb 37f 46f
3:12am 8 10 mph 1002mb 37f 45f
3:06am 8 9 mph 1001.9mb 37f 45f
3:00am 7 9 mph 1001.8mb 37f 45f
2:54am 7 9 mph 1001.9mb 37f 45f
2:48am 7 10 mph 1001.7mb 37f 45f
2:42am 8 10 mph 1001.7mb 37f 45f
2:36am 8 10 mph 1001.5mb 37f 45f
2:30am 8 10 mph 1001.5mb 37f 44f
2:24am 8 9 mph 1001.5mb 37f 44f
2:18am 6 8 mph 1001.4mb 37f 40f
2:12am 3 5 mph 1001.4mb 37f 40f
2:06am 2 3 mph 1001.3mb 38f 40f
2:00am 1 3 mph 1001.2mb 38f 40f
1:54am  -  1 mph 1001.1mb 38f 39f
1:48am  -  2 mph 1001mb 38f 39f
1:42am 2 3 mph 1001mb 38f 39f
1:36am 2 3 mph 1000.9mb 38f 40f
1:30am 3 5 mph 1000.9mb 38f 40f
1:24am 5
mph
1000.9mb 38f 40f
1:18am 5
mph
1000.9mb 38f 40f
1:12am 2 3 mph 1001mb 38f 40f
1:06am 3 5 mph 1000.9mb 38f 40f
1:00am 3 5 mph 1000.9mb 38f 40f
12:54am 3 6 mph 1000.9mb 38f 40f
12:48am 5 6 mph 1001mb 38f 40f
12:42am 6 7 mph 1001mb 38f 40f
12:36am 6
mph
1001mb 38f 39f
12:30am 2 3 mph 1001mb 38f 40f
12:24am 2
mph
1001.1mb 38f 40f
12:18am  -  2 mph 1001mb 38f 40f
12:12am 2 5 mph 1001mb 38f 40f
12:06am 3 5 mph 1001mb 38f 40f
12:00am 5
mph
1001mb 38f 40f
Sat 02/18 11:54pm 5 6 mph 1001mb 38f 40f
11:48pm 3 5 mph 1001mb 38f 41f
11:42pm 5
mph
1000.9mb 38f 41f
11:36pm 3 6 mph 1000.9mb 38f 42f
11:30pm 5 7 mph 1000.8mb 38f 42f
11:24pm 5 6 mph 1000.8mb 38f 42f
11:18pm 5 6 mph 1000.8mb 38f 42f
11:12pm 5 6 mph 1000.8mb 38f 42f
11:06pm 5 6 mph 1000.9mb 38f 41f
11:00pm 3 5 mph 1000.9mb 38f 42f
10:54pm 5
mph
1000.9mb 38f 42f
10:48pm 3 5 mph 1001mb 38f 42f
10:42pm 5
mph
1000.9mb 38f 42f
10:36pm 5 7 mph 1000.9mb 38f 42f
10:30pm 6 7 mph 1001mb 38f 42f
10:24pm 5 6 mph 1001mb 38f 43f
10:18pm 5 7 mph 1001mb 38f 44f
10:12pm 7 9 mph 1001mb 38f 44f
10:06pm 7
mph
1001.1mb 38f 45f
10:00pm 7 8 mph 1001.1mb 38f 46f
9:54pm 7 9 mph 1001.1mb 38f 46f
9:48pm 7 9 mph 1001.1mb 38f 46f
9:42pm 7 9 mph 1001.1mb 38f 46f
9:36pm 7 9 mph 1001.2mb 38f 46f
9:30pm 7 9 mph 1001.3mb 38f 46f
9:24pm 7 9 mph 1001.2mb 38f 46f
9:18pm 6 9 mph 1001.3mb 37f 46f
9:12pm 7 9 mph 1001.3mb 37f 46f
9:06pm 7 9 mph 1001.3mb 37f 46f
9:00pm 7 8 mph 1001.4mb 37f 46f
8:54pm 7 9 mph 1001.4mb 37f 47f
8:48pm 7 8 mph 1001.5mb 37f 47f
8:42pm 7 8 mph 1001.5mb 37f 47f
8:36pm 7 10 mph 1001.5mb 37f 47f
8:30pm 7 10 mph 1001.5mb 37f 47f
8:24pm 9 11 mph 1001.6mb 37f 47f
8:18pm 7 11 mph 1001.6mb 37f 47f
8:12pm 7 10 mph 1001.6mb 37f 47f
8:06pm 7 10 mph 1001.6mb 37f 47f
8:00pm 7 11 mph 1001.6mb 37f 47f
7:54pm 7 11 mph 1001.6mb 37f 47f
7:48pm 7 10 mph 1001.6mb 37f 47f
7:42pm 8 11 mph 1001.6mb 37f 47f
7:36pm 8 11 mph 1001.6mb 37f 47f
7:30pm 7 10 mph 1001.7mb 37f 47f
7:24pm 8 10 mph 1001.7mb 37f 47f
7:18pm 8 13 mph 1001.7mb 37f 47f
7:12pm 10 13 mph 1001.7mb 37f 47f
7:06pm 8 11 mph 1001.6mb 37f 47f
7:00pm 9 13 mph 1001.5mb 37f 47f
6:54pm 9 13 mph 1001.5mb 37f 47f
6:48pm 8 14 mph 1001.5mb 37f 47f
6:42pm 10 14 mph 1001.5mb 37f 47f
6:36pm 8 11 mph 1001.6mb 37f 46f
6:30pm 7 10 mph 1001.7mb 37f 46f
6:24pm 8 13 mph 1001.6mb 37f 46f
6:18pm 10 13 mph 1001.6mb 37f 46f
6:12pm 9 14 mph 1001.6mb 37f 46f
6:06pm 10 13 mph 1001.5mb 37f 47f
6:00pm 9 11 mph 1001.7mb 37f 47f
5:54pm 6 10 mph 1001.7mb 37f 47f
5:48pm 6 10 mph 1001.6mb 37f 47f
5:42pm 7 11 mph 1001.5mb 37f 47f
5:36pm 9 15 mph 1001.7mb 37f 47f
5:30pm 8 13 mph 1001.8mb 37f 48f
5:24pm 9 14 mph 1001.8mb 37f 48f
5:18pm 10 15 mph 1001.8mb 37f 48f
5:12pm 10 16 mph 1001.9mb 37f 48f
5:06pm 11 16 mph 1001.8mb 37f 49f
5:00pm 13 20 mph 1001.9mb 37f 49f
4:54pm 13 18 mph 1002mb 37f 49f
4:48pm 13 18 mph 1002.1mb 37f 49f
4:42pm 9 16 mph 1002.1mb 37f 49f
4:36pm 7 15 mph 1002mb 37f 49f
4:30pm 7 14 mph 1002mb 37f 49f
4:24pm 7 11 mph 1002.2mb 37f 49f
4:18pm 7 11 mph 1002mb 37f 49f
4:12pm 8 13 mph 1001.9mb 37f 49f
4:06pm 9 14 mph 1001.9mb 37f 49f
4:00pm 8 14 mph 1002mb 37f 49f
3:54pm 10 16 mph 1001.9mb 37f 49f
3:48pm 9 16 mph 1001.9mb 37f 50f
3:42pm 10 16 mph 1002mb 37f 50f
3:36pm 11 16 mph 1002.1mb 37f 50f
3:30pm 8 15 mph 1002mb 37f 50f
3:24pm 11 16 mph 1002mb 37f 50f
3:18pm 13 21 mph 1002.1mb 37f 50f
3:12pm 10 15 mph 1002.1mb 37f 50f
3:06pm 15 18 mph 1002.3mb 37f 50f
3:00pm 9 15 mph 1002.2mb 37f 50f
2:54pm 8 15 mph 1002.2mb 37f 50f
2:48pm 13 17 mph 1002.3mb 37f 50f
2:42pm 9 17 mph 1002.5mb 37f 50f
2:36pm 9 20 mph 1002.7mb 37f 51f
2:30pm 13 18 mph 1002.7mb 37f 50f
2:24pm 15 20 mph 1002.7mb 37f 50f
2:18pm 9 16 mph 1002.9mb 37f 50f
2:12pm 10 18 mph 1003.1mb 37f 49f
2:06pm 9 16 mph 1003mb 37f 50f
2:00pm 13 18 mph 1003.2mb 37f 49f
1:54pm 10 15 mph 1003.4mb 37f 50f
1:48pm 9 17 mph 1003.8mb 37f 50f
1:42pm 16 21 mph 1004.1mb 37f 49f
1:36pm 11 17 mph 1004.1mb 37f 50f
1:30pm 10 18 mph 1004.1mb 37f 49f
1:24pm 10 18 mph 1004mb 37f 49f
1:18pm 17 21 mph 1004.1mb 37f 49f
1:12pm 13 22 mph 1004.4mb 37f 48f
1:06pm 13 18 mph 1004.6mb 37f 48f
1:00pm 16 21 mph 1004.8mb 37f 48f
12:54pm 14 23 mph 1004.9mb 37f 49f
12:48pm 10 18 mph 1005.1mb 37f 49f
12:42pm 11 18 mph 1005mb 37f 48f
12:36pm 10 17 mph 1005.3mb 37f 48f
12:30pm 13 21 mph 1005.2mb 37f 47f
12:24pm 14 28 mph 1005.3mb 37f 47f
12:18pm 15 23 mph 1005.3mb 37f 47f
12:12pm 14 24 mph 1005.3mb 37f 47f
12:06pm 15 22 mph 1005.5mb 37f 47f
12:00pm 16 23 mph 1005.6mb 37f 47f
11:54am 14 20 mph 1005.8mb 37f 46f
11:48am 11 20 mph 1006mb 37f 46f
11:42am 11 20 mph 1006.4mb 37f 46f
11:36am 9 15 mph 1006.6mb 37f 46f
11:30am 11 18 mph 1006.7mb 37f 46f
11:24am 11 15 mph 1006.8mb 37f 45f
11:18am 8 15 mph 1006.9mb 37f 45f
11:12am 13 17 mph 1007mb 37f 44f
11:06am 15 20 mph 1007.1mb 37f 44f
11:00am 9 15 mph 1007.2mb 37f 43f
10:54am 8 14 mph 1007.2mb 37f 43f
10:48am 8 16 mph 1007.4mb 37f 43f
10:42am 9 20 mph 1007.5mb 37f 43f
10:36am 11 17 mph 1007.6mb 37f 42f
10:30am 11 17 mph 1007.7mb 37f 42f
10:24am 15 20 mph 1007.8mb 37f 42f
10:18am 9 16 mph 1007.9mb 37f 42f
10:12am 9 16 mph 1008mb 37f 42f
10:06am 8 16 mph 1008.1mb 37f 42f
10:00am 11 16 mph 1008.2mb 37f 41f
9:54am 10 15 mph 1008.4mb 37f 41f
9:48am 10 15 mph 1008.5mb 37f 41f
9:42am 7 11 mph 1008.5mb 37f 40f
9:36am 5 10 mph 1008.6mb 37f 39f
9:30am 9 15 mph 1008.7mb 37f 38f
9:24am 8 14 mph 1008.8mb 37f 38f
9:18am 9 13 mph 1008.9mb 37f 38f
9:12am 8 10 mph 1008.9mb 37f 37f
9:06am 6 9 mph 1009mb 37f 37f
9:00am 5 10 mph 1009.3mb 37f 36f
8:54am 7 10 mph 1009.5mb 37f 36f
8:48am 3 7 mph 1009.4mb 37f 36f
8:42am 6 7 mph 1009.4mb 37f 35f
8:36am 5 6 mph 1009.3mb 37f 34f
8:30am 3 5 mph 1009.5mb 37f 34f
8:24am 3 6 mph 1009.7mb 37f 35f
8:18am 3 6 mph 1009.8mb 37f 34f
8:12am 3 7 mph 1009.8mb 37f 34f
8:06am 5 6 mph 1009.7mb 37f 33f
8:00am 2 5 mph 1009.7mb 37f 33f
7:54am 2 5 mph 1009.7mb 37f 33f
7:48am 3 6 mph 1009.8mb 37f 31f
7:42am 3 6 mph 1009.8mb 37f 31f
7:36am 5 6 mph 1010mb 37f 30f
7:30am 3 5 mph 1010mb 36f 30f
7:24am 3 5 mph 1010mb 36f 30f
7:18am 3 5 mph 1010mb 36f 29f
7:12am 3 6 mph 1010mb 36f 28f
7:06am 3 6 mph 1010mb 36f 28f
7:00am 5 6 mph 1009.9mb 36f 28f
6:54am 5 7 mph 1009.8mb 36f 27f
6:48am 6 7 mph 1009.7mb 36f 27f
6:42am 5 6 mph 1009.7mb 36f 26f
6:36am 3 5 mph 1009.6mb 36f 26f
6:30am 3 5 mph 1009.5mb 35f 27f
6:24am 3 5 mph 1009.6mb 35f 26f
6:18am 2 3 mph 1009.7mb 35f 26f
6:12am 2 3 mph 1009.9mb 35f 26f
6:06am 2
mph
1009.9mb 35f 26f
6:00am 2 3 mph 1009.8mb 35f 26f
5:54am 2 3 mph 1009.8mb 35f 27f
5:48am 2 5 mph 1009.8mb 35f 27f
5:42am 3 5 mph 1009.8mb 35f 27f
5:36am 3 5 mph 1009.6mb 35f 27f
5:30am 2 3 mph 1009.7mb 35f 27f
5:24am 2 3 mph 1009.7mb 35f 27f
5:18am 3 7 mph 1009.8mb 35f 28f
5:12am 7 8 mph 1009.9mb 35f 27f
5:06am 5 7 mph 1009.9mb 35f 28f
5:00am 3 6 mph 1009.7mb 35f 27f
4:54am 3 5 mph 1009.7mb 35f 28f
4:48am 3 5 mph - - -
4:42am 3
mph
1009.8mb 36f 28f
4:36am 3
mph
1009.8mb 36f 28f
4:30am 3 5 mph 1009.6mb 36f 28f
4:24am 5 6 mph 1009.8mb 36f 28f
4:18am 3
mph
1009.7mb 36f 28f
4:12am 3
mph
1009.7mb 36f 28f
4:06am 3
mph
1009.8mb 36f 28f
4:00am 2 5 mph 1009.9mb 36f 29f
3:54am 5 7 mph 1010mb 36f 29f
3:48am 6
mph
1010mb 36f 29f
3:42am 3
mph
1009.9mb 36f 28f
3:36am  -  2 mph 1009.8mb 36f 29f
3:30am 2 3 mph 1009.7mb 36f 28f
3:24am 3 5 mph 1009.9mb 36f 28f
3:18am 5
mph
- - -
3:12am 2 3 mph 1010.1mb 36f 29f
3:06am  -  1 mph 1010.2mb 37f 29f
3:00am  -  1 mph 1010.3mb 37f 29f
2:54am  -  2 mph 1010.3mb 37f 29f
2:48am 1 3 mph - - -
2:42am 3 5 mph 1010.6mb 37f 29f
2:36am 5
mph
1010.5mb 37f 29f
2:30am 5
mph
1010.4mb 37f 29f
2:24am 3 5 mph 1010.4mb 37f 29f
2:18am 3 5 mph 1010.3mb 37f 29f
2:12am 3
mph
1010.2mb 37f 29f
2:06am 3
mph
1010.2mb 37f 29f
2:00am 2 3 mph 1010.1mb 37f 29f
1:54am 3 6 mph 1010.1mb 37f 29f
1:48am 5
mph
1010.2mb 37f 29f
1:42am 3 6 mph 1010.1mb 37f -
1:36am 3 6 mph 1010.3mb 37f -
1:30am 5 6 mph 1010.3mb 37f 29f
1:24am 3 5 mph 1010.2mb 37f 29f
1:18am 3 5 mph 1010mb 37f 29f
1:12am 3 5 mph 1009.9mb 37f 29f
1:06am 3
mph
1009.8mb 37f 29f
1:00am 2 3 mph 1009.8mb 37f 29f
12:54am 2 3 mph 1009.7mb 37f 29f
12:48am 1 3 mph 1009.6mb 37f 30f
12:42am 3 6 mph 1009.6mb 37f 30f
12:36am 5 9 mph 1009.5mb 37f 31f
12:30am 6 8 mph 1009.5mb 37f 31f
12:24am 6 9 mph 1009.6mb 37f 31f
12:18am 7 9 mph 1009.6mb 37f 31f
12:12am 5 8 mph 1009.6mb 37f 31f
12:06am 5 8 mph 1009.5mb 37f 31f
12:00am 5 8 mph 1009.5mb 37f 31f
Fri 02/17 11:54pm 6 8 mph 1009.5mb 37f 31f
11:48pm 2 5 mph 1009.5mb 37f 31f
11:42pm 3 6 mph 1009.4mb 37f 31f
11:36pm 3 7 mph 1009.3mb 37f 31f
11:30pm 6 8 mph 1009.2mb 37f 31f
11:24pm 6 9 mph 1009.1mb 37f 31f
11:18pm 7 9 mph 1009mb 37f 31f
11:12pm 7 10 mph 1009mb 37f 31f
11:06pm 8 9 mph 1009mb 37f 32f
11:00pm 6 8 mph 1009mb 37f 31f
10:54pm 7 9 mph 1009mb 37f 32f
10:48pm 5 7 mph 1008.9mb 37f 32f
10:42pm 2 3 mph 1009mb 37f 31f
10:36pm 2 6 mph 1008.9mb 37f 31f
10:30pm 5 8 mph 1009mb 37f 32f
10:24pm 5 7 mph 1009mb 37f 32f
10:18pm 3 5 mph 1009mb 37f 32f
10:12pm 2 5 mph 1008.9mb 37f 32f
10:06pm 2 5 mph 1008.8mb 37f 32f
10:00pm 2 8 mph 1008.9mb 37f 32f
9:54pm 5 7 mph 1008.9mb 37f 33f
9:48pm 5 10 mph 1008.6mb 37f 33f
9:42pm 6 9 mph 1008.4mb 37f 33f
9:36pm 6 10 mph 1008.3mb 37f 33f
9:30pm 6 9 mph 1008.3mb 37f 33f
9:24pm 6 8 mph 1008.3mb 37f 33f
9:18pm 6 9 mph 1008.2mb 37f 33f
9:12pm 6 8 mph 1008.4mb 37f 34f
9:06pm 7 10 mph 1008.3mb 37f 34f
9:00pm 7 10 mph 1008.3mb 37f 34f
8:54pm 7 9 mph 1008.3mb 37f 34f
8:48pm 5 10 mph 1008.4mb 37f 34f
8:42pm 8 10 mph 1008.4mb 37f 35f
8:36pm 7 14 mph 1008.3mb 37f 35f
8:30pm 9 13 mph 1008.2mb 37f 35f
8:24pm 8 13 mph 1008.2mb 37f 35f
8:18pm 7 13 mph 1008.2mb 37f 35f
8:12pm 9 14 mph 1008.2mb 37f 35f
8:06pm 10 15 mph 1008.2mb 37f 35f
8:00pm 10 15 mph 1008.1mb 37f 35f
7:54pm 11 17 mph 1007.9mb 37f 35f
7:48pm 14 20 mph 1007.8mb 37f 36f
7:42pm 11 15 mph 1007.8mb 37f 36f
7:36pm 11 15 mph 1007.7mb 37f 36f
7:30pm 9 14 mph 1007.5mb 37f 36f
7:24pm 11 15 mph 1007.4mb 37f 36f
7:18pm 11 18 mph 1007.4mb 37f 37f
7:12pm 11 17 mph 1007.5mb 37f 37f
7:06pm 10 17 mph 1007.4mb 37f 37f
7:00pm 13 16 mph 1007.3mb 37f 37f
6:54pm 10 13 mph 1007.3mb 37f 37f
6:48pm 8 13 mph 1007.1mb 36f 37f
6:42pm 13 16 mph 1007mb 36f 37f
6:36pm 10 16 mph 1007.1mb 36f 37f
6:30pm 10 14 mph 1007mb 36f 37f
6:24pm 7 16 mph 1006.9mb 36f 37f
6:18pm 11 16 mph 1006.7mb 36f 37f
6:12pm 10 14 mph 1006.7mb 36f 38f
6:06pm 8 15 mph 1006.8mb 36f 38f
6:00pm 7 15 mph 1006.7mb 36f 38f
5:54pm 11 16 mph 1006.5mb 36f 38f
5:48pm 13 21 mph 1006.4mb 36f 38f
5:42pm 11 17 mph 1006.4mb 36f 38f
5:36pm 9 17 mph 1006.4mb 36f 38f
5:30pm 9 15 mph 1006.4mb 36f 38f
5:24pm 9 17 mph 1006.3mb 36f 39f
5:18pm 5 20 mph 1006.2mb 36f 39f
5:12pm 11 18 mph 1006.1mb 36f 39f
5:06pm 15 18 mph 1006mb 36f 39f
5:00pm 10 18 mph 1005.9mb 36f 40f
4:54pm 10 17 mph 1005.7mb 36f 40f
4:48pm 8 17 mph 1005.7mb 36f 40f
4:42pm 10 20 mph 1005.5mb 36f 40f
4:36pm 10 17 mph 1005.5mb 36f 40f
4:30pm 13 18 mph 1005.3mb 36f 40f
4:24pm 11 16 mph 1005.2mb 36f 40f
4:18pm 9 16 mph 1005.1mb 35f 40f
4:12pm 9 16 mph 1005mb 35f 40f
4:06pm 8 16 mph 1004.9mb 35f 40f
4:00pm 11 17 mph 1004.8mb 35f 40f
3:54pm 8 14 mph 1004.8mb 35f 41f
3:48pm 9 16 mph 1004.7mb 35f 40f
3:42pm 9 20 mph 1004.7mb 35f 41f
3:36pm 11 17 mph 1004.6mb 35f 41f
3:30pm 11 18 mph 1004.7mb 35f 40f
3:24pm 13 17 mph 1004.6mb 35f 40f
3:18pm 13 17 mph 1004.6mb 36f 40f
3:12pm 11 17 mph 1004.6mb 36f 40f
3:06pm 13 15 mph 1004.6mb 36f 40f
3:00pm 13 18 mph 1004.6mb 36f 40f
2:54pm 7 21 mph 1004.6mb 36f 40f
2:48pm 14 18 mph 1004.6mb 36f 40f
2:42pm 16 21 mph 1004.6mb 36f 40f
2:36pm 9 17 mph 1004.6mb 36f 40f
2:30pm 13 17 mph 1004.5mb 36f 40f
2:24pm 15 17 mph 1004.5mb 36f 40f
2:18pm 13 18 mph 1004.6mb 36f 40f
2:12pm 11 21 mph 1004.6mb 36f 40f
2:06pm 11 18 mph 1004.6mb 36f 40f
2:00pm 15 21 mph 1004.5mb 37f 39f
1:54pm 15 21 mph 1004.5mb 37f 39f
1:48pm 15 21 mph 1004.5mb 37f 39f
1:42pm 10 20 mph 1004.6mb 37f 39f
1:36pm 11 20 mph 1004.6mb 37f 39f
1:30pm 13 18 mph 1004.6mb 37f 39f
1:24pm 13 18 mph 1004.6mb 37f 39f
1:18pm 14 25 mph 1004.6mb 37f 38f
1:12pm 13 20 mph 1004.5mb 37f 38f
1:06pm 10 20 mph 1004.4mb 37f 38f
1:00pm 17 23 mph 1004.4mb 37f 37f
12:54pm 16 24 mph 1004.4mb 37f 37f
12:48pm 20 26 mph 1004.4mb 37f 37f
12:42pm 16 24 mph 1004.5mb 37f 37f
12:36pm 15 20 mph 1004.6mb 37f 37f
12:30pm 11 20 mph 1004.5mb 37f 37f
12:24pm 13 20 mph 1004.6mb 37f 37f
12:18pm 11 22 mph 1004.6mb 37f 36f
12:12pm 9 20 mph 1004.6mb 37f 36f
12:06pm 14 22 mph 1004.7mb 37f 36f
12:00pm 16 22 mph 1004.7mb 37f 35f
11:54am 8 18 mph 1004.7mb 37f 36f
11:48am 8 21 mph 1004.7mb 37f 36f
11:42am 16 22 mph 1004.8mb 37f 35f
11:36am 15 21 mph 1004.8mb 37f 35f
11:30am 21 24 mph 1005mb 37f 34f
11:24am 15 22 mph 1005.1mb 37f 35f
11:18am 13 22 mph 1005.2mb 37f 34f
11:12am 15 20 mph 1005.2mb 37f 34f
11:06am 10 21 mph 1005.2mb 37f 34f
11:00am 14 21 mph 1005.3mb 37f 34f
10:54am 16 24 mph 1005.3mb 36f 33f
10:48am 15 21 mph 1005.4mb 36f 33f
10:42am 16 21 mph 1005.4mb 36f 33f
10:36am 13 21 mph 1005.4mb 36f 32f
10:30am 13 20 mph 1005.4mb 36f 33f
10:24am 16 21 mph 1005.3mb 36f 32f
10:18am 9 20 mph 1005.4mb 36f 32f
10:12am 16 21 mph 1005.4mb 36f 32f
10:06am 14 22 mph 1005.3mb 36f 32f
10:00am 15 22 mph 1005.3mb 36f 31f
9:54am 17 22 mph 1005.4mb 36f 31f
9:48am 13 21 mph 1005.4mb 36f 31f
9:42am 14 25 mph 1005.3mb 36f 31f
9:36am 14 23 mph 1005.2mb 36f 30f
9:30am 15 21 mph 1005.2mb 36f 30f
9:24am 14 21 mph 1005.2mb 36f 30f
9:18am 10 17 mph 1005.3mb 35f 30f
9:12am 13 25 mph 1005.2mb 35f 29f
9:06am 15 21 mph 1005.3mb 35f 29f
9:00am 11 22 mph 1005.3mb 35f 29f
8:54am 14 23 mph 1005.3mb 35f 29f
8:48am 14 23 mph 1005.3mb 35f 29f
8:42am 14 24 mph 1005.2mb 35f 28f
8:36am 14 21 mph 1005.3mb 35f 28f
8:30am 8 18 mph 1005.4mb 35f 28f
8:24am 11 18 mph 1005.5mb 35f 28f
8:18am 15 21 mph 1005.4mb 35f 28f
8:12am 15 21 mph 1005.4mb 35f 28f
8:06am 11 18 mph 1005.3mb 35f 27f
8:00am 9 16 mph 1005.4mb 35f 27f
7:54am 9 14 mph 1005.4mb 35f 27f
7:48am 10 16 mph 1005.3mb 35f 27f
7:42am 9 17 mph 1005.3mb 35f 26f
7:36am 13 16 mph 1005.3mb 35f 26f
7:30am 9 15 mph 1005.2mb 35f 26f
7:24am 10 15 mph 1005mb 35f 25f
7:18am 9 16 mph 1005mb 35f 25f
7:12am 9 14 mph 1005.1mb 35f 25f
7:06am 9 14 mph 1005.1mb 35f 25f
7:00am 8 14 mph 1004.9mb 35f 25f
6:54am 10 14 mph 1005mb 35f 25f
6:48am 7 13 mph - - -
6:42am 8 13 mph 1004.8mb 35f 24f
6:36am 10 15 mph 1004.8mb 35f 24f
6:30am 9 13 mph 1004.7mb 35f 24f
6:24am 10 15 mph 1004.7mb 35f 24f
6:18am 8 14 mph 1004.7mb 35f 24f
6:12am 11 16 mph 1004.7mb 35f 24f
6:06am 10 15 mph 1004.7mb 35f 24f
6:00am 9 13 mph 1004.7mb 35f 24f
5:54am 9 14 mph 1004.8mb 35f 24f
5:48am 9 15 mph 1004.8mb 35f 24f
5:42am 7 10 mph 1004.8mb 35f 24f
5:36am 8 13 mph 1004.6mb 35f 24f
5:30am 9 13 mph 1004.6mb 35f 24f
5:24am 10 13 mph 1004.4mb 35f 24f
5:18am 9 16 mph 1004.4mb 35f 24f
5:12am 10 14 mph 1004.4mb 35f 24f
5:06am 8 10 mph 1004.4mb 35f 24f
5:00am 7 11 mph 1004.3mb 35f 24f
4:54am 8 10 mph 1004.3mb 35f 24f
4:48am 10 14 mph 1004.1mb 35f 25f
4:42am 9 16 mph 1004.1mb 35f 25f
4:36am 8 14 mph 1004mb 35f 25f
4:30am 10 15 mph 1003.9mb 35f 25f
4:24am 13 17 mph 1003.8mb 35f 25f
4:18am 11 16 mph 1003.9mb 35f 25f
4:12am 8 17 mph 1003.9mb 35f 25f
4:06am 10 15 mph 1003.9mb 35f 25f
4:00am 10 16 mph 1004mb 35f 25f
3:54am 8 17 mph 1003.8mb 35f 25f
3:48am 15 20 mph 1003.5mb 35f 25f
3:42am 13 20 mph 1003.5mb 35f 25f
3:36am 10 18 mph 1003.5mb 35f 25f
3:30am 8 18 mph 1003.4mb 35f 25f
3:24am 7 15 mph 1003.3mb 35f 25f
3:18am 8 14 mph 1003.3mb 36f 25f
3:12am 10 14 mph 1003.4mb 36f 25f
3:06am 10 16 mph 1003.4mb 36f 25f
3:00am 7 16 mph 1003.4mb 36f 25f
2:54am 13 18 mph 1003.4mb 36f 25f
2:48am 6 11 mph 1003.4mb 36f 25f
2:42am 6 11 mph 1003.4mb 36f 25f
2:36am 7 13 mph 1003.5mb 36f 25f
2:30am 9 13 mph 1003.5mb 36f 25f
2:24am 6 17 mph 1003.6mb 36f 25f
2:18am 13 17 mph 1003.5mb 36f 25f
2:12am 13 17 mph 1003.5mb 36f 25f
2:06am 10 17 mph 1003.6mb 36f 25f
2:00am 13 22 mph 1003.5mb 36f 25f
1:54am 11 16 mph 1003.5mb 36f 26f
1:48am 14 20 mph 1003.6mb 37f 25f
1:42am 14 21 mph 1003.5mb 37f 26f
1:36am 10 18 mph 1003.5mb 37f 26f
1:30am 9 16 mph 1003.5mb 37f 26f
1:24am 9 17 mph 1003.5mb 37f 26f
1:18am 14 18 mph - - -
1:12am 10 20 mph 1003.3mb 37f 26f
1:06am 11 16 mph 1003.2mb 37f 26f
1:00am 9 20 mph 1003.1mb 37f 26f
12:54am 13 17 mph 1003mb 37f 26f
12:48am 14 17 mph 1003mb 37f 26f
12:42am 6 16 mph 1003mb 37f 26f
12:36am 9 16 mph 1003mb 37f 26f
12:30am 8 18 mph 1003mb 37f 26f
12:24am 8 16 mph 1003mb 37f 26f
12:18am 14 20 mph 1003.1mb 37f 26f
12:12am 11 20 mph 1003mb 37f 26f
12:06am 15 21 mph 1003mb 37f 26f
12:00am 9 17 mph 1003.1mb 37f 27f
Thu 02/16 11:54pm 9 18 mph 1003mb 37f 27f
11:48pm 11 20 mph - - -
11:42pm 13 21 mph 1002.7mb 37f 27f
11:36pm 13 24 mph 1002.7mb 37f 27f
11:30pm 15 20 mph 1002.6mb 37f 27f
11:24pm 11 16 mph 1002.7mb 37f 27f
11:18pm 11 18 mph 1002.6mb 37f 27f
11:12pm 11 17 mph 1002.5mb 37f 27f
11:06pm 13 18 mph 1002.5mb 37f 27f
11:00pm 11 20 mph 1002.5mb 37f 27f
10:54pm 13 16 mph 1002.4mb 37f 28f
10:48pm 8 16 mph 1002.4mb 37f 28f
10:42pm 9 17 mph 1002.3mb 37f 28f
10:36pm 11 21 mph 1002.3mb 37f 28f
10:30pm 10 18 mph 1002.2mb 37f 28f
10:24pm 17 23 mph 1002.1mb 37f 28f
10:18pm 14 21 mph 1002.1mb 37f 28f
10:12pm 13 20 mph 1002.1mb 37f 28f
10:06pm 11 21 mph 1002.1mb 37f 28f
10:00pm 16 24 mph 1002.1mb 37f 29f
9:54pm 15 22 mph 1002.1mb 37f 29f
9:48pm 14 20 mph 1002mb 37f 29f
9:42pm 11 17 mph 1001.9mb 37f 29f
9:36pm 15 18 mph 1001.9mb 37f 29f
9:30pm 14 21 mph 1001.9mb 37f 29f
9:24pm 13 23 mph 1001.9mb 37f 29f
9:18pm 13 20 mph 1001.8mb - -
9:12pm 13 18 mph 1001.7mb 37f 29f
9:06pm 10 16 mph 1001.7mb 37f 30f
9:00pm 13 16 mph 1001.6mb 37f 30f
8:54pm 10 22 mph 1001.5mb 37f 30f
8:48pm 14 22 mph - - -
8:42pm 9 18 mph 1001.4mb 37f 30f
8:36pm 11 18 mph 1001.2mb 37f 30f
8:30pm 15 21 mph 1001.1mb 37f 31f
8:24pm 15 21 mph 1001mb 37f 31f
8:18pm 11 20 mph 1001mb 37f 31f
8:12pm 13 17 mph 1000.9mb 37f 31f
8:06pm 11 17 mph 1000.9mb 37f 31f
8:00pm 9 20 mph 1000.9mb 37f 31f
7:54pm 10 16 mph 1000.8mb 37f 31f
7:48pm 8 14 mph 1000.7mb 37f 31f
7:42pm 14 18 mph 1000.5mb 37f 31f
7:36pm 9 17 mph 1000.3mb 37f 31f
7:30pm 13 17 mph 1000.3mb 37f -
7:24pm 13 16 mph 1000.2mb 36f 32f
7:18pm 11 20 mph 1000.2mb 36f 32f
7:12pm 11 15 mph 1000.1mb 36f 32f
7:06pm 6 18 mph 1000.1mb 36f 32f
7:00pm 10 18 mph 1000mb 36f 32f
6:54pm 14 18 mph 999.8mb 36f 32f
6:48pm 11 16 mph 999.8mb 36f 32f
6:42pm 10 22 mph 999.7mb 36f 33f
6:36pm 15 25 mph 999.6mb 36f 33f
6:30pm 13 20 mph - - -
6:24pm 13 21 mph 999.4mb 36f 33f
6:18pm 10 22 mph - - -
6:12pm 10 17 mph 999.2mb 36f 33f
6:06pm 11 18 mph 999mb 36f 33f
6:00pm 16 22 mph 998.9mb 36f 33f
5:54pm 13 21 mph 998.8mb 36f 33f
5:48pm 11 20 mph 998.7mb - -
5:42pm 11 18 mph 998.5mb 36f 33f
5:36pm 13 17 mph 998.5mb 36f 33f
5:30pm 8 22 mph - - -
5:24pm 11 22 mph 998.2mb 36f 34f
5:18pm 9 15 mph 998.1mb 36f 34f
5:12pm 10 18 mph 997.9mb 36f 34f
5:06pm 11 23 mph 997.9mb 36f 34f
5:00pm 14 22 mph 997.7mb 36f 34f
4:54pm 15 25 mph 997.6mb 36f 34f
4:48pm 11 21 mph 997.5mb 36f 34f
4:42pm 17 23 mph 997.4mb 36f 34f
4:36pm 11 26 mph 997.2mb 36f 34f
4:30pm 13 22 mph 997.1mb 36f 34f
4:24pm 14 23 mph 997mb 36f 34f
4:18pm 16 24 mph 996.9mb 36f 34f
4:12pm 13 22 mph 996.8mb 36f 35f
4:06pm 18 24 mph 996.7mb 36f 34f
4:00pm 17 22 mph 996.7mb 36f 35f
3:54pm 16 24 mph 996.6mb 36f 35f
3:48pm 17 22 mph 996.5mb 36f 35f
3:42pm 13 20 mph 996.5mb 36f 36f
3:36pm 11 25 mph 996.4mb 36f 36f
3:30pm 17 25 mph 996.3mb 36f 35f
3:24pm 16 24 mph 996.3mb 36f 36f
3:18pm 17 26 mph 996.2mb 36f 36f
3:12pm 16 25 mph 996.2mb 36f 36f
3:06pm 17 24 mph 996.1mb 36f 36f
3:00pm 16 24 mph 996.1mb 36f 36f
2:54pm 16 23 mph 996.1mb 36f 36f
2:48pm 16 23 mph 996mb 36f 36f
2:42pm 15 26 mph 996mb 36f 36f
2:36pm 16 24 mph 995.9mb 36f 36f
2:30pm 20 26 mph 995.9mb 36f 36f
2:24pm 10 25 mph 995.8mb 36f 37f
2:18pm 17 25 mph 995.7mb 36f 36f
2:12pm 14 26 mph 995.7mb 36f 37f
2:06pm 18 24 mph 995.6mb 36f 37f
2:00pm 14 26 mph 995.6mb 36f 36f
1:54pm 14 23 mph 995.5mb 36f 37f
1:48pm 8 21 mph 995.5mb 36f 37f
1:42pm 20 25 mph 995.6mb 36f 36f
1:36pm 15 24 mph 995.6mb 36f 37f
1:30pm 15 23 mph 995.6mb 36f 36f
1:24pm 17 25 mph 995.6mb 36f 37f
1:18pm 15 25 mph 995.5mb 36f 37f
1:12pm 11 21 mph 995.5mb 36f 37f
1:06pm 15 20 mph 995.6mb 36f 37f
1:00pm 13 18 mph 995.6mb 36f 37f
12:54pm 13 22 mph 995.6mb 36f 36f
12:48pm 17 22 mph 995.6mb 36f 36f
12:42pm 15 25 mph 995.7mb 36f 36f
12:36pm 14 23 mph 995.6mb 36f 37f
12:30pm 20 25 mph 995.6mb 36f 36f
12:24pm 15 21 mph 995.6mb 36f 37f
12:18pm 17 28 mph 995.6mb 36f 36f
12:12pm 17 26 mph 995.6mb 36f 37f
12:06pm 16 25 mph 995.6mb 36f 36f
12:00pm 16 29 mph 995.6mb 36f 36f
11:54am 15 23 mph 995.7mb 36f 36f
11:48am 13 22 mph 995.7mb 36f 36f
11:42am 14 25 mph 995.6mb 37f 37f
11:36am 14 25 mph 995.6mb 37f 37f
11:30am 11 25 mph 995.6mb 37f 37f
11:24am 17 25 mph 995.7mb 37f 36f
11:18am 15 23 mph 995.7mb 36f 37f
11:12am 15 23 mph 995.7mb 36f 36f
11:06am 15 22 mph 995.7mb 36f 36f
11:00am 16 23 mph 995.7mb 36f 36f
10:54am 10 17 mph 995.7mb 36f 36f
10:48am 16 23 mph 995.7mb 36f 36f
10:42am 11 23 mph 995.7mb 36f 36f
10:36am 10 21 mph 995.7mb 36f 36f
10:30am 11 20 mph 995.6mb 36f 35f
10:24am 14 24 mph 995.6mb 36f 35f
10:18am 10 23 mph 995.5mb 36f 35f
10:12am 13 18 mph 995.5mb 36f 35f
10:06am 13 18 mph 995.5mb 36f 35f
10:00am 17 23 mph 995.4mb 36f 35f
9:54am 14 21 mph 995.4mb 36f 35f
9:48am 17 25 mph 995.3mb 36f 35f
9:42am 15 23 mph 995.3mb 36f 35f
9:36am 17 25 mph 995.1mb 36f 35f
9:30am 14 22 mph 995.1mb 36f 34f
9:24am 13 21 mph 995.1mb 36f 35f
9:18am 10 20 mph 995mb 36f 35f
9:12am 10 24 mph 995.1mb 36f 35f
9:06am 14 20 mph 995.1mb 36f 34f
9:00am 9 17 mph 995mb 36f 35f
8:54am 11 21 mph 995mb 36f 34f
8:48am 14 21 mph 994.9mb 36f 34f
8:42am 14 21 mph 994.8mb 36f 34f
8:36am 15 25 mph 994.8mb 36f 34f
8:30am 14 22 mph 994.7mb 36f 35f
8:24am 11 16 mph 994.7mb 36f 35f
8:18am 9 16 mph 994.5mb 36f 35f
8:12am 9 16 mph 994.5mb 36f 35f
8:06am 8 16 mph 994.4mb 36f 35f
8:00am 8 15 mph 994.3mb 36f 35f
7:54am 10 16 mph 994.3mb 36f 35f
7:48am 10 16 mph - - -
7:42am 9 17 mph 994.2mb 36f 35f
7:36am 11 21 mph 994.2mb 36f 35f
7:30am 10 14 mph 994.1mb 36f 35f
7:24am 10 13 mph 994mb 36f 35f
7:18am 10 13 mph 994mb 36f 35f
7:12am 10 14 mph 993.9mb 36f 35f
7:06am 13 17 mph 993.8mb 36f 34f
7:00am 11 17 mph 993.5mb 36f 34f
6:54am 11 21 mph 993.4mb 35f 34f
6:48am 10 16 mph 993.3mb 35f 34f
6:42am 9 15 mph 993.2mb 35f 34f
6:36am 11 15 mph 993.2mb 35f 34f
6:30am 11 17 mph 993.1mb 35f 34f
6:24am 9 13 mph 992.9mb 35f 34f
6:18am 10 15 mph 992.8mb 35f 34f
6:12am 9 15 mph 992.7mb 35f 34f
6:06am 9 16 mph 992.7mb 35f 34f
6:00am 7 13 mph 992.6mb 35f 34f
5:54am 8 15 mph 992.5mb 35f 34f
5:48am 8 11 mph 992.5mb 35f 34f
5:42am 7 11 mph 992.5mb 35f 34f
5:36am 8 14 mph 992.3mb 35f 34f
5:30am 7 14 mph 992.3mb 35f 34f
5:24am 7 14 mph 992.2mb 35f 34f
5:18am 9 14 mph 992mb 35f 34f
5:12am 8 14 mph 991.9mb 36f 34f
5:06am 13 17 mph 991.9mb 36f 34f
5:00am 9 16 mph 991.9mb 36f 34f
4:54am 8 17 mph 991.9mb 36f 34f
4:48am 10 18 mph 991.8mb 36f 34f
4:42am 9 18 mph 991.7mb 36f 34f
4:36am 11 18 mph 991.6mb 36f 34f
4:30am 11 16 mph 991.5mb 36f 34f
4:24am 11 17 mph 991.4mb 36f 34f
4:18am 9 17 mph 991.3mb 36f 34f
4:12am 8 17 mph 991.3mb 36f 35f
4:06am 11 20 mph 991.2mb 36f 35f
4:00am 8 20 mph 991.1mb 36f 35f
3:54am 8 18 mph 991.1mb 36f 35f
3:48am 14 21 mph 990.9mb 36f 35f
3:42am 10 16 mph 990.9mb 36f 35f
3:36am 13 23 mph 990.9mb 36f 35f
3:30am 10 22 mph 990.8mb 36f 35f
3:24am 11 21 mph 990.7mb 36f 35f
3:18am 14 24 mph 990.6mb 36f 35f
3:12am 13 24 mph 990.5mb 36f 35f
3:06am 13 22 mph 990.4mb 36f 35f
3:00am 15 24 mph 990.3mb 36f 35f
2:54am 13 22 mph 990.3mb 36f 35f
2:48am 10 21 mph 990.3mb 36f 35f
2:42am 17 25 mph 990.3mb 36f 35f
2:36am 11 21 mph 990.1mb 36f 35f
2:30am 13 28 mph 990mb 36f 35f
2:24am 14 21 mph 990mb 36f 35f
2:18am 10 18 mph 990.1mb 36f 35f
2:12am 10 21 mph 990.1mb 36f 36f
2:00am 15 20 mph 990.1mb 36f 36f
1:54am 13 18 mph 990.1mb 36f 36f
1:48am 10 20 mph 990.1mb 36f 36f
1:42am 10 15 mph 990mb 36f -
1:36am 9 15 mph 990mb 36f -
1:30am 8 18 mph 989.9mb 36f 37f
1:24am 13 20 mph 989.8mb 36f 37f
1:18am 13 20 mph 989.7mb 36f 37f
1:12am 13 16 mph 989.7mb 36f 37f
1:06am 13 18 mph 989.7mb 36f 37f
1:00am 14 22 mph 989.7mb 36f 37f
12:54am 13 20 mph 989.6mb 36f 37f
12:48am 15 23 mph - - -
12:42am 13 24 mph 989.6mb 36f 37f
12:36am 14 22 mph 989.6mb 36f 37f
12:30am 16 21 mph 989.6mb 36f 37f
12:24am 14 26 mph 989.6mb 36f 37f
12:18am 15 21 mph 989.6mb 36f 37f
12:12am 15 21 mph 989.6mb 36f 37f
12:06am 15 25 mph 989.4mb 36f 37f
12:00am 15 20 mph 989.3mb 36f 37f
Wed 02/15 11:54pm 14 24 mph 989.3mb 36f 37f
11:48pm 14 30 mph 989.3mb 36f 37f
11:42pm 18 26 mph 989.3mb 36f 37f
11:36pm 13 25 mph 989.3mb 36f 37f
11:30pm 14 20 mph 989.3mb 36f 37f
11:24pm 13 22 mph 989.3mb 36f 37f
11:18pm 11 21 mph 989.2mb 36f 37f
11:12pm 15 22 mph 989.1mb 36f 37f
11:06pm 13 20 mph 989.1mb 36f 37f
11:00pm 11 17 mph 989.1mb 36f 37f
10:54pm 11 20 mph 989mb 36f 37f
10:48pm 16 25 mph - - -
10:42pm 11 18 mph 988.9mb 36f 37f
10:36pm 11 20 mph 989mb 36f 37f
10:30pm 9 15 mph 989mb 36f 37f
10:24pm 11 18 mph 989.1mb 36f 37f
10:18pm 9 15 mph 989.1mb 36f 37f
10:12pm 10 15 mph 989.2mb 36f 37f
10:06pm 10 16 mph 989.2mb 36f 38f
10:00pm 11 17 mph 989.1mb 36f 37f
9:54pm 10 17 mph 989.1mb 36f 37f
9:48pm 8 13 mph - - -
9:42pm 8 11 mph 989.1mb 36f 37f
9:36pm 9 13 mph 989.1mb 36f 37f
9:30pm 9 13 mph 989.1mb 36f 37f
9:24pm 9 13 mph 989.1mb 36f 37f
9:18pm 9 14 mph - - -
9:12pm 10 15 mph 989.1mb 36f 37f
9:06pm 8 14 mph 989.2mb 36f 37f
9:00pm 8 15 mph 989.2mb 36f 37f
8:54pm 10 14 mph 989.4mb 36f 36f
8:48pm 7 11 mph 989.4mb 36f -
8:42pm 9 11 mph 989.4mb 36f 37f
8:36pm 7 11 mph 989.4mb 36f 37f
8:30pm 9 14 mph 989.6mb 36f 37f
8:24pm 9 14 mph 989.6mb 36f 37f
8:18pm 8 13 mph 989.7mb 36f 37f
8:12pm 7 11 mph 989.7mb 36f 38f
8:06pm 8 11 mph 989.7mb 36f 38f
8:00pm 9 13 mph 989.7mb - -
7:54pm 8 10 mph 989.8mb 36f 39f
7:48pm 9 11 mph 989.8mb 36f 39f
7:42pm 6 9 mph 989.8mb 36f 39f
7:36pm 5 7 mph 989.8mb 36f 39f
7:30pm 6 9 mph 989.8mb 36f 39f
7:24pm 7 10 mph 989.8mb 36f 39f
7:18pm 11 14 mph 989.9mb 36f 39f
7:12pm 6 8 mph 989.7mb 36f 39f
7:06pm 2 5 mph 989.6mb 36f 39f
7:00pm 2 7 mph 989.6mb 36f 39f
6:54pm 5 7 mph 989.8mb 36f 39f
6:48pm 6 8 mph 989.8mb 36f 39f
6:42pm 5 6 mph 989.8mb 36f 39f
6:36pm 3 6 mph 989.7mb 36f 39f
6:30pm 5 7 mph 989.7mb 36f 39f
6:24pm 2 5 mph 989.6mb 36f 39f
6:18pm 3 5 mph 989.6mb 36f 39f
6:12pm 2 3 mph 989.7mb 36f 39f
6:06pm 1 3 mph 989.7mb 36f 39f
6:00pm 1 3 mph 989.8mb 36f -
5:54pm 1 3 mph 989.8mb 36f 39f
5:48pm 2 5 mph - - -
5:42pm 2 3 mph 989.9mb 36f 40f
5:36pm 2 5 mph 989.9mb 36f 40f
5:30pm 2 3 mph 989.9mb 36f 40f
5:24pm 1 6 mph 989.9mb 36f 40f
5:18pm 5 8 mph 989.9mb 36f 40f
5:12pm 3 7 mph 989.9mb 36f 40f
5:06pm 7 8 mph 990.2mb 36f 40f
5:00pm 6 7 mph 990.2mb - -
4:54pm 2 5 mph 990.3mb 36f 40f
4:48pm 1 3 mph 990.6mb 36f 40f
4:42pm 2 3 mph 990.6mb 36f 40f
4:36pm 2 3 mph 990.8mb 35f 40f
4:30pm  -  1 mph 990.8mb 35f 40f
4:24pm  -  mph 990.9mb 35f 40f
4:18pm  -  mph 991.1mb 35f -
4:12pm  -  2 mph 991.2mb 35f 40f
4:06pm 2 3 mph 991.4mb 35f 40f
4:00pm 2 5 mph 991.4mb 35f 40f
3:54pm 2 5 mph 991.6mb 35f 40f
3:48pm 5 6 mph 991.6mb 35f 40f
3:42pm 2 3 mph 991.8mb 35f 40f
3:36pm 1 2 mph 991.9mb 35f 40f
3:30pm 1 3 mph 992mb 35f 41f
3:24pm 3 5 mph 992.2mb 35f 41f
3:18pm 2 6 mph 992.3mb 35f 41f
3:12pm 3 6 mph 992.3mb 35f 40f
3:06pm 5 6 mph 992.3mb 35f 41f
3:00pm 6 7 mph 992.4mb 35f 41f
2:54pm 6 7 mph 992.5mb 35f 41f
2:48pm 6 7 mph 992.6mb 35f 41f
2:42pm 3 6 mph 992.7mb 35f 41f
2:36pm 5 7 mph 992.7mb 35f 41f
2:30pm 6 7 mph 993mb 35f 40f
2:24pm 5 8 mph 993mb 35f 40f
2:18pm 8 10 mph 993.1mb 35f 40f
2:12pm 7 9 mph 993.2mb 35f 40f
2:06pm 8 9 mph 993.5mb 35f 40f
2:00pm 7 8 mph 993.5mb 35f 40f
1:54pm 7 8 mph 993.6mb 35f 40f
1:48pm 6 9 mph 993.7mb 35f 40f
1:42pm 7 8 mph 993.8mb 35f 40f
1:36pm 7 8 mph 994mb 35f 39f
1:30pm 6 8 mph 994.1mb 35f 39f
1:24pm 7 9 mph 994.3mb 35f 40f
1:18pm 7 10 mph 994.3mb 35f 40f
1:12pm 8 10 mph 994.4mb 35f 40f
1:06pm 8 11 mph 994.8mb 35f 40f
1:00pm 7 11 mph 994.9mb 35f 40f
12:54pm 9 14 mph 994.9mb 35f 40f
12:48pm 10 14 mph 994.9mb 35f 40f
12:42pm 9 10 mph 995mb 35f 40f
12:36pm 7 10 mph 995.1mb 35f 40f
12:30pm 8 10 mph 995.3mb 35f 40f
12:24pm 6 7 mph 995.5mb 35f 40f
12:18pm 6 7 mph 995.6mb 35f 41f
12:12pm 6 8 mph 995.8mb 35f 41f
12:06pm 8 10 mph 995.9mb 35f 40f